Time;durP1;ratioP1;P1;durP2;ratioP2;P2;SDS_P1;SDS_P2;PMS_P1;PMS_P2;Temp;Humidity;BMP_temperature;BMP_pressure;BME280_temperature;BME280_humidity;BME280_pressure;Samples;Min_cycle;Max_cycle;Signal;HPM_P1;HPM_P2
2023/07/04 00:00:59;;;;;;;9.23;3.67;;;;;;;;;;5061052;28;20130;-64
2023/07/04 00:03:28;;;;;;;7.75;3.30;;;;;;;;;;5060286;28;20433;-64
2023/07/04 00:05:57;;;;;;;9.32;3.70;;;;;;;;;;5060623;28;20402;-66
2023/07/04 00:08:28;;;;;;;9.93;3.17;;;;;;;;;;5060604;28;20041;-67
2023/07/04 00:10:58;;;;;;;8.02;3.50;;;;;;;;;;5060332;28;20165;-66
2023/07/04 00:13:27;;;;;;;8.57;3.25;;;;;;;;;;5059583;28;20543;-65
2023/07/04 00:15:56;;;;;;;7.90;2.78;;;;;;;;;;5063451;28;20045;-65
2023/07/04 00:18:25;;;;;;;8.30;3.03;;;;;;;;;;5065599;28;20441;-66
2023/07/04 00:20:55;;;;;;;10.40;3.15;;;;;;;;;;5065313;28;20055;-67
2023/07/04 00:23:23;;;;;;;7.07;3.22;;;;;;;;;;5062740;28;20059;-66
2023/07/04 00:25:53;;;;;;;7.13;3.28;;;;;;;;;;5064468;28;20129;-66
2023/07/04 00:28:22;;;;;;;6.68;3.15;;;;;;;;;;5064225;28;20143;-64
2023/07/04 00:30:51;;;;;;;8.55;2.83;;;;;;;;;;5063596;28;20075;-64
2023/07/04 00:33:21;;;;;;;6.28;2.80;;;;;;;;;;5064145;28;20059;-65
2023/07/04 00:35:49;;;;;;;9.20;3.40;;;;;;;;;;5065188;28;20057;-65
2023/07/04 00:38:19;;;;;;;9.32;2.88;;;;;;;;;;5065044;28;20701;-65
2023/07/04 00:40:50;;;;;;;6.50;3.03;;;;;;;;;;5064880;28;20497;-64
2023/07/04 00:43:22;;;;;;;7.03;2.63;;;;;;;;;;5065541;28;20057;-65
2023/07/04 00:45:56;;;;;;;5.47;2.60;;;;;;;;;;5061836;28;20044;-65
2023/07/04 00:48:26;;;;;;;5.90;2.90;;;;;;;;;;5061364;28;20052;-69
2023/07/04 00:51:04;;;;;;;9.50;2.92;;;;;;;;;;5064111;28;20055;-65
2023/07/04 00:53:35;;;;;;;6.70;3.00;;;;;;;;;;5064782;28;20051;-65
2023/07/04 00:56:03;;;;;;;7.97;3.22;;;;;;;;;;5064902;28;20420;-69
2023/07/04 00:58:33;;;;;;;7.63;2.80;;;;;;;;;;5064243;28;20055;-65
2023/07/04 01:01:01;;;;;;;7.13;3.10;;;;;;;;;;5062796;28;20430;-64
2023/07/04 01:03:30;;;;;;;6.03;3.10;;;;;;;;;;5083676;22;20052;-72
2023/07/04 01:06:02;;;;;;;8.02;2.70;;;;;;;;;;5079960;28;20055;-69
2023/07/04 01:08:34;;;;;;;6.63;3.15;;;;;;;;;;5085715;28;20048;-67
2023/07/04 01:11:04;;;;;;;8.63;2.78;;;;;;;;;;5084573;28;20056;-69
2023/07/04 01:13:35;;;;;;;5.55;2.45;;;;;;;;;;5085097;28;20040;-69
2023/07/04 01:16:04;;;;;;;8.90;2.60;;;;;;;;;;5083669;28;20101;-70
2023/07/04 01:18:33;;;;;;;8.95;3.35;;;;;;;;;;5085554;28;20040;-70
2023/07/04 01:21:05;;;;;;;6.30;3.03;;;;;;;;;;5083017;28;20048;-68
2023/07/04 01:23:38;;;;;;;7.93;3.53;;;;;;;;;;5084353;28;20060;-69
2023/07/04 01:26:25;;;;;;;9.73;3.15;;;;;;;;;;5084195;28;20044;-70
2023/07/04 01:28:54;;;;;;;4.10;2.58;;;;;;;;;;5085202;28;20040;-69
2023/07/04 01:31:25;;;;;;;5.07;2.72;;;;;;;;;;5083596;28;20040;-68
2023/07/04 01:33:54;;;;;;;5.80;3.00;;;;;;;;;;5085336;28;20066;-68
2023/07/04 01:36:24;;;;;;;9.27;3.10;;;;;;;;;;5084202;28;20056;-69
2023/07/04 01:38:53;;;;;;;10.93;3.00;;;;;;;;;;5085131;28;20048;-70
2023/07/04 01:41:24;;;;;;;7.43;2.78;;;;;;;;;;5083179;28;20069;-69
2023/07/04 01:43:57;;;;;;;8.55;2.38;;;;;;;;;;5082609;28;20432;-69
2023/07/04 01:46:25;;;;;;;6.75;3.28;;;;;;;;;;5082406;28;20382;-68
2023/07/04 01:48:55;;;;;;;6.60;2.67;;;;;;;;;;5083478;28;20624;-69
2023/07/04 01:51:25;;;;;;;7.03;2.80;;;;;;;;;;5084955;28;20093;-69
2023/07/04 01:53:53;;;;;;;5.95;2.95;;;;;;;;;;5082558;28;20052;-69
2023/07/04 01:56:21;;;;;;;5.78;2.45;;;;;;;;;;5084045;28;20040;-69
2023/07/04 01:58:50;;;;;;;6.68;2.40;;;;;;;;;;5082778;28;20105;-69
2023/07/04 02:01:19;;;;;;;7.28;3.03;;;;;;;;;;5082993;28;20130;-69
2023/07/04 02:03:48;;;;;;;5.95;2.30;;;;;;;;;;5083364;28;20063;-68
2023/07/04 02:06:16;;;;;;;4.90;2.20;;;;;;;;;;5082625;28;20052;-68
2023/07/04 02:08:45;;;;;;;3.88;2.20;;;;;;;;;;5081633;28;20044;-68
2023/07/04 02:11:13;;;;;;;5.97;2.28;;;;;;;;;;5083395;28;20132;-67
2023/07/04 02:13:42;;;;;;;7.13;2.28;;;;;;;;;;5080940;28;20481;-70
2023/07/04 02:16:10;;;;;;;7.20;2.33;;;;;;;;;;5083684;28;20454;-68
2023/07/04 02:18:40;;;;;;;4.00;2.03;;;;;;;;;;5082272;28;20412;-68
2023/07/04 02:21:08;;;;;;;5.03;1.98;;;;;;;;;;5081127;28;20075;-67
2023/07/04 02:23:37;;;;;;;4.45;1.90;;;;;;;;;;5081196;28;20131;-67
2023/07/04 02:26:05;;;;;;;5.60;2.08;;;;;;;;;;5083306;28;21216;-67
2023/07/04 02:28:35;;;;;;;6.13;2.22;;;;;;;;;;5083785;28;20060;-72
2023/07/04 02:31:04;;;;;;;6.13;2.15;;;;;;;;;;5081485;28;20076;-68
2023/07/04 02:33:32;;;;;;;4.22;2.17;;;;;;;;;;5082533;28;20055;-70
2023/07/04 02:36:02;;;;;;;4.75;2.03;;;;;;;;;;5081166;28;20079;-69
2023/07/04 02:38:30;;;;;;;6.72;2.58;;;;;;;;;;5082626;28;20516;-70
2023/07/04 02:40:59;;;;;;;5.82;2.03;;;;;;;;;;5082624;28;20136;-70
2023/07/04 02:43:27;;;;;;;4.10;2.00;;;;;;;;;;5083007;28;20458;-71
2023/07/04 02:45:56;;;;;;;5.57;2.15;;;;;;;;;;5079239;28;20040;-71
2023/07/04 02:48:25;;;;;;;3.67;1.92;;;;;;;;;;5083210;28;20137;-69
2023/07/04 02:50:54;;;;;;;4.43;2.03;;;;;;;;;;5082201;28;21311;-70
2023/07/04 02:53:24;;;;;;;3.53;1.80;;;;;;;;;;5084269;28;20058;-70
2023/07/04 02:55:53;;;;;;;6.90;2.45;;;;;;;;;;5080272;28;20040;-70
2023/07/04 02:58:22;;;;;;;4.78;2.20;;;;;;;;;;5081087;28;20059;-68
2023/07/04 03:00:50;;;;;;;8.77;2.30;;;;;;;;;;5082327;28;20067;-67
2023/07/04 03:03:21;;;;;;;7.38;2.03;;;;;;;;;;5080913;28;20051;-69
2023/07/04 03:05:50;;;;;;;7.35;2.10;;;;;;;;;;5079620;28;20052;-69
2023/07/04 03:08:18;;;;;;;7.10;2.22;;;;;;;;;;5081473;28;20043;-69
2023/07/04 03:10:48;;;;;;;3.47;2.00;;;;;;;;;;5082425;28;20098;-69
2023/07/04 03:13:17;;;;;;;4.25;1.90;;;;;;;;;;5083137;28;20051;-69
2023/07/04 03:15:45;;;;;;;4.60;1.98;;;;;;;;;;5080656;28;20440;-70
2023/07/04 03:18:14;;;;;;;4.10;2.17;;;;;;;;;;5081791;28;20798;-69
2023/07/04 03:20:42;;;;;;;5.00;2.03;;;;;;;;;;5081058;28;20044;-68
2023/07/04 03:23:11;;;;;;;5.50;2.22;;;;;;;;;;5081322;28;20105;-67
2023/07/04 03:25:39;;;;;;;3.55;2.00;;;;;;;;;;5079392;28;20093;-68
2023/07/04 03:28:09;;;;;;;3.78;1.90;;;;;;;;;;5082117;28;20044;-69
2023/07/04 03:30:37;;;;;;;2.25;1.75;;;;;;;;;;5081240;28;20273;-69
2023/07/04 03:33:05;;;;;;;2.63;1.65;;;;;;;;;;5083047;28;20044;-69
2023/07/04 03:35:34;;;;;;;4.95;1.95;;;;;;;;;;5081872;28;20083;-69
2023/07/04 03:38:20;;;;;;;5.25;1.90;;;;;;;;;;5079154;28;20484;-69
2023/07/04 03:40:49;;;;;;;3.58;1.65;;;;;;;;;;5080373;28;20511;-68
2023/07/04 03:43:19;;;;;;;2.75;1.80;;;;;;;;;;5083472;28;20039;-69
2023/07/04 03:45:47;;;;;;;4.28;1.65;;;;;;;;;;5080484;28;20048;-69
2023/07/04 03:48:16;;;;;;;4.30;1.98;;;;;;;;;;5081807;28;20792;-69
2023/07/04 03:50:45;;;;;;;3.60;1.90;;;;;;;;;;5081461;28;20046;-69
2023/07/04 03:53:13;;;;;;;2.70;1.63;;;;;;;;;;5080419;28;20562;-69
2023/07/04 03:55:41;;;;;;;5.50;2.08;;;;;;;;;;5079198;28;20048;-69
2023/07/04 03:58:10;;;;;;;4.22;1.80;;;;;;;;;;5081351;28;20075;-69
2023/07/04 04:00:39;;;;;;;2.90;1.67;;;;;;;;;;5079715;28;20071;-69
2023/07/04 04:03:08;;;;;;;3.97;2.13;;;;;;;;;;5081642;28;20102;-69
2023/07/04 04:05:36;;;;;;;3.80;1.80;;;;;;;;;;5076120;28;20048;-66
2023/07/04 04:08:05;;;;;;;3.45;1.95;;;;;;;;;;5080413;28;20135;-68
2023/07/04 04:10:34;;;;;;;5.07;2.08;;;;;;;;;;5080876;28;20040;-70
2023/07/04 04:13:03;;;;;;;2.90;1.75;;;;;;;;;;5080866;28;20071;-70
2023/07/04 04:15:31;;;;;;;7.13;2.03;;;;;;;;;;5076596;28;20044;-69
2023/07/04 04:18:01;;;;;;;3.65;1.80;;;;;;;;;;5072502;28;21197;-69
2023/07/04 04:20:30;;;;;;;5.53;2.40;;;;;;;;;;5075334;28;20072;-69
2023/07/04 04:22:58;;;;;;;3.35;2.13;;;;;;;;;;5077277;28;20606;-69
2023/07/04 04:25:27;;;;;;;5.53;1.92;;;;;;;;;;5070585;28;20056;-68
2023/07/04 04:27:55;;;;;;;3.47;1.80;;;;;;;;;;5076733;28;20509;-67
2023/07/04 04:30:23;;;;;;;3.90;2.00;;;;;;;;;;5072295;28;20067;-65
2023/07/04 04:32:52;;;;;;;9.32;2.03;;;;;;;;;;5077885;28;20497;-69
2023/07/04 04:35:22;;;;;;;5.63;2.20;;;;;;;;;;5074864;28;20056;-70
2023/07/04 04:37:50;;;;;;;5.95;2.15;;;;;;;;;;5074912;28;20064;-69
2023/07/04 04:40:19;;;;;;;8.20;2.10;;;;;;;;;;5071079;28;20062;-70
2023/07/04 04:42:55;;;;;;;4.38;1.90;;;;;;;;;;5075033;28;20052;-68
2023/07/04 04:45:24;;;;;;;6.60;2.17;;;;;;;;;;5072723;28;20044;-66
2023/07/04 04:47:53;;;;;;;4.85;1.90;;;;;;;;;;5076477;28;20075;-71
2023/07/04 04:50:24;;;;;;;6.80;2.17;;;;;;;;;;5076234;28;20044;-69
2023/07/04 04:52:53;;;;;;;4.90;2.00;;;;;;;;;;5072254;28;20071;-69
2023/07/04 04:55:21;;;;;;;5.03;1.95;;;;;;;;;;5067059;28;20052;-68
2023/07/04 04:57:50;;;;;;;5.05;1.67;;;;;;;;;;5073159;28;20052;-68
2023/07/04 05:00:18;;;;;;;3.65;1.60;;;;;;;;;;5073078;28;20069;-68
2023/07/04 05:02:47;;;;;;;2.92;1.92;;;;;;;;;;5065779;28;20078;-67
2023/07/04 05:05:17;;;;;;;5.00;1.70;;;;;;;;;;5069650;28;20057;-67
2023/07/04 05:07:47;;;;;;;2.90;1.73;;;;;;;;;;5074020;28;20082;-68
2023/07/04 05:10:16;;;;;;;3.58;1.65;;;;;;;;;;5079801;28;20052;-68
2023/07/04 05:12:44;;;;;;;4.85;1.70;;;;;;;;;;5077366;28;20056;-69
2023/07/04 05:15:12;;;;;;;5.65;2.17;;;;;;;;;;5078122;28;20055;-69
2023/07/04 05:17:41;;;;;;;2.45;1.33;;;;;;;;;;5073632;28;20113;-69
2023/07/04 05:20:14;;;;;;;4.65;1.88;;;;;;;;;;5078350;28;20543;-69
2023/07/04 05:22:43;;;;;;;3.45;1.65;;;;;;;;;;5080966;28;20052;-69
2023/07/04 05:25:12;;;;;;;2.65;1.50;;;;;;;;;;5077407;28;20186;-70
2023/07/04 05:27:41;;;;;;;3.13;1.27;;;;;;;;;;5079910;28;20396;-69
2023/07/04 05:30:10;;;;;;;6.20;1.75;;;;;;;;;;5072703;28;20050;-68
2023/07/04 05:32:39;;;;;;;4.88;1.20;;;;;;;;;;5072353;28;20075;-69
2023/07/04 05:35:08;;;;;;;3.88;1.17;;;;;;;;;;5076444;28;20097;-69
2023/07/04 05:37:36;;;;;;;3.95;1.27;;;;;;;;;;5083402;28;20124;-69
2023/07/04 05:40:05;;;;;;;2.22;1.17;;;;;;;;;;5076366;28;20052;-69
2023/07/04 05:42:34;;;;;;;2.45;1.20;;;;;;;;;;5076869;28;20051;-68
2023/07/04 05:45:03;;;;;;;2.40;1.30;;;;;;;;;;5074597;28;20060;-69
2023/07/04 05:47:31;;;;;;;2.00;1.23;;;;;;;;;;5078554;28;20089;-68
2023/07/04 05:50:00;;;;;;;1.90;1.25;;;;;;;;;;5078518;28;20579;-69
2023/07/04 05:52:29;;;;;;;2.90;1.20;;;;;;;;;;5079020;28;20465;-69
2023/07/04 05:55:00;;;;;;;2.78;1.10;;;;;;;;;;5076850;28;20550;-68
2023/07/04 05:57:31;;;;;;;2.30;1.13;;;;;;;;;;5076449;28;20059;-69
2023/07/04 06:00:01;;;;;;;1.73;0.80;;;;;;;;;;5078302;28;20047;-71
2023/07/04 06:02:29;;;;;;;1.95;0.90;;;;;;;;;;5081731;28;20043;-71
2023/07/04 06:04:58;;;;;;;1.75;1.00;;;;;;;;;;5079605;28;20311;-72
2023/07/04 06:07:30;;;;;;;2.05;1.23;;;;;;;;;;5080385;28;20055;-66
2023/07/04 06:09:59;;;;;;;1.75;1.00;;;;;;;;;;5077577;28;20054;-67
2023/07/04 06:12:30;;;;;;;1.35;1.02;;;;;;;;;;5080291;28;20083;-72
2023/07/04 06:15:00;;;;;;;4.03;1.20;;;;;;;;;;5078399;28;20575;-71
2023/07/04 06:17:29;;;;;;;3.20;1.23;;;;;;;;;;5076298;28;20074;-74
2023/07/04 06:19:57;;;;;;;1.25;1.00;;;;;;;;;;5078606;28;20052;-70
2023/07/04 06:22:26;;;;;;;3.50;1.10;;;;;;;;;;5078935;28;20102;-71
2023/07/04 06:24:54;;;;;;;3.03;1.30;;;;;;;;;;5079256;28;20040;-71
2023/07/04 06:27:24;;;;;;;6.18;1.33;;;;;;;;;;5081970;28;20137;-68
2023/07/04 06:29:55;;;;;;;2.50;1.10;;;;;;;;;;5079572;28;20044;-71
2023/07/04 06:32:25;;;;;;;3.00;1.17;;;;;;;;;;5080612;28;20078;-71
2023/07/04 06:34:53;;;;;;;1.88;1.13;;;;;;;;;;5075529;28;20047;-70
2023/07/04 06:37:22;;;;;;;1.95;0.90;;;;;;;;;;5079406;28;20076;-72
2023/07/04 06:39:50;;;;;;;2.55;1.35;;;;;;;;;;5079320;28;20457;-72
2023/07/04 06:42:18;;;;;;;3.58;1.05;;;;;;;;;;5081918;28;20048;-71
2023/07/04 06:44:47;;;;;;;2.30;0.98;;;;;;;;;;5074516;28;20072;-70
2023/07/04 06:47:15;;;;;;;2.00;1.00;;;;;;;;;;5080922;28;20105;-71
2023/07/04 06:49:45;;;;;;;1.95;1.00;;;;;;;;;;5078530;28;20048;-70
2023/07/04 06:52:15;;;;;;;1.85;1.40;;;;;;;;;;5080785;28;20054;-67
2023/07/04 06:54:45;;;;;;;1.65;1.10;;;;;;;;;;5079534;28;20077;-72
2023/07/04 06:57:15;;;;;;;1.70;1.02;;;;;;;;;;5078916;28;20530;-70
2023/07/04 06:59:44;;;;;;;3.22;1.02;;;;;;;;;;5072131;28;20170;-72
2023/07/04 07:02:14;;;;;;;2.35;1.27;;;;;;;;;;5079105;28;20044;-70
2023/07/04 07:04:43;;;;;;;3.03;1.20;;;;;;;;;;5078053;28;20480;-73
2023/07/04 07:07:13;;;;;;;2.67;1.08;;;;;;;;;;5080748;28;20044;-71
2023/07/04 07:09:42;;;;;;;1.58;0.93;;;;;;;;;;5081756;28;20047;-72
2023/07/04 07:12:12;;;;;;;1.88;1.02;;;;;;;;;;5077067;28;20559;-72
2023/07/04 07:14:40;;;;;;;2.28;1.15;;;;;;;;;;5077900;28;20042;-72
2023/07/04 07:17:09;;;;;;;2.60;1.20;;;;;;;;;;5076394;28;20048;-72
2023/07/04 07:19:38;;;;;;;3.13;1.17;;;;;;;;;;5076185;28;20110;-72
2023/07/04 07:22:07;;;;;;;1.85;1.02;;;;;;;;;;5079402;28;20715;-72
2023/07/04 07:24:37;;;;;;;1.42;0.98;;;;;;;;;;5078104;28;20436;-72
2023/07/04 07:27:07;;;;;;;1.40;1.05;;;;;;;;;;5077031;28;20462;-73
2023/07/04 07:29:36;;;;;;;2.10;0.93;;;;;;;;;;5076434;28;20500;-73
2023/07/04 07:32:05;;;;;;;1.63;0.90;;;;;;;;;;5075304;28;20056;-71
2023/07/04 07:34:33;;;;;;;1.63;1.13;;;;;;;;;;5079482;28;20561;-70
2023/07/04 07:37:02;;;;;;;2.60;1.02;;;;;;;;;;5077508;28;20339;-72
2023/07/04 07:39:30;;;;;;;1.85;1.00;;;;;;;;;;5079694;28;20473;-72
2023/07/04 07:42:01;;;;;;;2.08;1.27;;;;;;;;;;5076159;28;20048;-72
2023/07/04 07:44:30;;;;;;;2.33;1.13;;;;;;;;;;5076144;28;20480;-71
2023/07/04 07:46:58;;;;;;;1.08;0.80;;;;;;;;;;5074810;28;20467;-71
2023/07/04 07:49:27;;;;;;;3.33;1.23;;;;;;;;;;5077373;28;20048;-71
2023/07/04 07:51:55;;;;;;;3.55;1.10;;;;;;;;;;5078358;28;20044;-73
2023/07/04 07:54:23;;;;;;;1.75;1.02;;;;;;;;;;5073241;28;20488;-72
2023/07/04 07:56:52;;;;;;;1.35;0.73;;;;;;;;;;5076808;28;20047;-73
2023/07/04 07:59:22;;;;;;;1.58;0.85;;;;;;;;;;5074559;28;20059;-73
2023/07/04 08:01:51;;;;;;;2.25;1.10;;;;;;;;;;5072863;28;20167;-73
2023/07/04 08:04:19;;;;;;;1.58;0.90;;;;;;;;;;5077711;28;20070;-71
2023/07/04 08:06:48;;;;;;;2.92;1.55;;;;;;;;;;5080072;28;20673;-71
2023/07/04 08:09:17;;;;;;;1.65;0.98;;;;;;;;;;5074536;28;20040;-75
2023/07/04 08:11:46;;;;;;;1.73;0.98;;;;;;;;;;5077043;28;20105;-74
2023/07/04 08:14:17;;;;;;;1.90;1.40;;;;;;;;;;5078350;28;20040;-70
2023/07/04 08:16:48;;;;;;;1.30;0.98;;;;;;;;;;5078934;28;20056;-70
2023/07/04 08:19:18;;;;;;;2.08;1.20;;;;;;;;;;5079965;28;20063;-71
2023/07/04 08:21:46;;;;;;;1.75;1.00;;;;;;;;;;5077536;28;20041;-72
2023/07/04 08:24:15;;;;;;;1.85;1.08;;;;;;;;;;5079977;28;20052;-71
2023/07/04 08:26:45;;;;;;;2.00;1.25;;;;;;;;;;5077564;28;20113;-71
2023/07/04 08:29:14;;;;;;;1.60;1.30;;;;;;;;;;5075787;28;20044;-71
2023/07/04 08:31:42;;;;;;;1.90;1.02;;;;;;;;;;5076827;28;20048;-70
2023/07/04 08:34:13;;;;;;;1.90;1.27;;;;;;;;;;5072103;28;20067;-73
2023/07/04 08:36:41;;;;;;;2.67;1.55;;;;;;;;;;5078970;28;20048;-72
2023/07/04 08:39:10;;;;;;;1.90;0.88;;;;;;;;;;5083300;28;20090;-72
2023/07/04 08:41:45;;;;;;;1.77;1.10;;;;;;;;;;5082015;28;20403;-72
2023/07/04 08:44:13;;;;;;;;;;;;;;;;;;5081276;28;20047;-73
2023/07/04 08:46:42;;;;;;;3.17;1.10;;;;;;;;;;5078706;28;20624;-72
2023/07/04 08:49:22;;;;;;;1.30;0.80;;;;;;;;;;5083327;28;20593;-71
2023/07/04 08:51:55;;;;;;;3.85;1.50;;;;;;;;;;5082897;28;20105;-71
2023/07/04 08:54:23;;;;;;;3.53;1.17;;;;;;;;;;5083152;28;20048;-73
2023/07/04 08:56:52;;;;;;;2.00;1.10;;;;;;;;;;5079626;28;20488;-69
2023/07/04 08:59:22;;;;;;;2.08;1.30;;;;;;;;;;5075320;28;20639;-73
2023/07/04 09:01:59;;;;;;;2.72;1.20;;;;;;;;;;5077946;28;20048;-71
2023/07/04 09:04:36;;;;;;;2.80;0.98;;;;;;;;;;5079392;28;20048;-73
2023/07/04 09:07:10;;;;;;;3.13;1.20;;;;;;;;;;5081630;28;20052;-72
2023/07/04 09:09:44;;;;;;;1.08;0.85;;;;;;;;;;5072436;28;20048;-71
2023/07/04 09:12:12;;;;;;;3.33;2.13;;;;;;;;;;5078877;28;20131;-70
2023/07/04 09:14:43;;;;;;;1.35;0.90;;;;;;;;;;5077404;28;20516;-72
2023/07/04 09:17:16;;;;;;;1.85;1.00;;;;;;;;;;5077312;28;20079;-72
2023/07/04 09:19:47;;;;;;;1.02;0.90;;;;;;;;;;5080389;28;20052;-72
2023/07/04 09:22:16;;;;;;;3.30;1.25;;;;;;;;;;5078611;28;20113;-72
2023/07/04 09:24:44;;;;;;;1.65;1.30;;;;;;;;;;5080337;28;20117;-73
2023/07/04 09:27:14;;;;;;;5.78;1.08;;;;;;;;;;5080943;28;20094;-71
2023/07/04 09:29:43;;;;;;;2.78;1.15;;;;;;;;;;5082460;28;20500;-71
2023/07/04 09:32:12;;;;;;;3.08;1.15;;;;;;;;;;5082704;28;20055;-69
2023/07/04 09:34:43;;;;;;;2.63;1.30;;;;;;;;;;5081206;28;21089;-71
2023/07/04 09:37:14;;;;;;;2.05;1.20;;;;;;;;;;5081981;28;20466;-72
2023/07/04 09:39:46;;;;;;;3.70;1.20;;;;;;;;;;5079332;28;20441;-73
2023/07/04 09:42:19;;;;;;;2.67;1.20;;;;;;;;;;5080707;28;20048;-73
2023/07/04 09:45:09;;;;;;;1.90;1.10;;;;;;;;;;5081097;28;20352;-69
2023/07/04 09:47:38;;;;;;;3.42;1.27;;;;;;;;;;5077545;28;20056;-72
2023/07/04 09:50:11;;;;;;;2.13;1.13;;;;;;;;;;5078275;28;20044;-72
2023/07/04 09:52:41;;;;;;;3.58;1.60;;;;;;;;;;5081886;28;20045;-70
2023/07/04 09:55:13;;;;;;;1.50;1.08;;;;;;;;;;5079123;28;20093;-70
2023/07/04 09:57:42;;;;;;;2.42;1.17;;;;;;;;;;5068848;28;20049;-70
2023/07/04 10:00:16;;;;;;;5.32;1.65;;;;;;;;;;5074776;28;20044;-71
2023/07/04 10:02:45;;;;;;;2.90;1.35;;;;;;;;;;5079687;28;20052;-70
2023/07/04 10:05:24;;;;;;;5.28;1.88;;;;;;;;;;5080246;28;20076;-71
2023/07/04 10:08:07;;;;;;;4.78;1.58;;;;;;;;;;5075526;28;20420;-70
2023/07/04 10:10:37;;;;;;;2.97;1.50;;;;;;;;;;5076447;28;20469;-70
2023/07/04 10:13:07;;;;;;;3.55;1.50;;;;;;;;;;5075870;28;20668;-70
2023/07/04 10:15:43;;;;;;;4.28;1.75;;;;;;;;;;5074445;28;20043;-71
2023/07/04 10:18:24;;;;;;;2.40;1.30;;;;;;;;;;5076124;28;20052;-71
2023/07/04 10:20:54;;;;;;;3.13;1.60;;;;;;;;;;5074576;28;20148;-71
2023/07/04 10:23:26;;;;;;;4.22;1.40;;;;;;;;;;5075568;28;20047;-70
2023/07/04 10:25:55;;;;;;;3.58;1.27;;;;;;;;;;5073213;28;20044;-71
2023/07/04 10:28:26;;;;;;;6.63;2.15;;;;;;;;;;5078755;28;20055;-71
2023/07/04 10:30:57;;;;;;;2.55;1.58;;;;;;;;;;5079530;28;20524;-71
2023/07/04 10:33:29;;;;;;;2.65;1.60;;;;;;;;;;5076695;28;20063;-71
2023/07/04 10:35:57;;;;;;;4.68;1.77;;;;;;;;;;5072635;28;20496;-71
2023/07/04 10:38:31;;;;;;;2.83;1.58;;;;;;;;;;5073783;28;20036;-72
2023/07/04 10:41:00;;;;;;;1.90;1.50;;;;;;;;;;5074551;28;20047;-70
2023/07/04 10:43:30;;;;;;;3.00;1.98;;;;;;;;;;5077526;28;20701;-69
2023/07/04 10:46:01;;;;;;;3.75;1.70;;;;;;;;;;5075160;28;20048;-71
2023/07/04 10:48:32;;;;;;;3.78;1.70;;;;;;;;;;5075980;28;20067;-69
2023/07/04 10:51:03;;;;;;;3.47;1.60;;;;;;;;;;5076265;28;20322;-70
2023/07/04 10:53:33;;;;;;;6.20;1.80;;;;;;;;;;5074003;28;20604;-70
2023/07/04 10:56:03;;;;;;;7.53;2.00;;;;;;;;;;5077757;28;20132;-70
2023/07/04 10:58:35;;;;;;;4.35;1.60;;;;;;;;;;5075938;28;20048;-71
2023/07/04 11:01:06;;;;;;;4.47;1.85;;;;;;;;;;5073903;28;20048;-70
2023/07/04 11:03:41;;;;;;;4.85;2.25;;;;;;;;;;5074141;28;20044;-70
2023/07/04 11:06:11;;;;;;;6.70;2.05;;;;;;;;;;5070722;28;20518;-71
2023/07/04 11:08:42;;;;;;;3.90;1.90;;;;;;;;;;5070285;28;20058;-70
2023/07/04 11:11:12;;;;;;;5.35;2.45;;;;;;;;;;5074930;28;20048;-68
2023/07/04 11:13:42;;;;;;;3.78;2.00;;;;;;;;;;5075942;28;20071;-70
2023/07/04 11:16:11;;;;;;;3.50;1.70;;;;;;;;;;5078941;28;20052;-70
2023/07/04 11:18:41;;;;;;;7.57;1.98;;;;;;;;;;5075912;28;20066;-72
2023/07/04 11:21:11;;;;;;;3.83;1.60;;;;;;;;;;5078157;28;20044;-70
2023/07/04 11:23:49;;;;;;;5.15;1.95;;;;;;;;;;5075260;28;20055;-72
2023/07/04 11:26:18;;;;;;;3.67;1.67;;;;;;;;;;5075974;28;20055;-70
2023/07/04 11:28:50;;;;;;;3.97;2.00;;;;;;;;;;5074778;28;20044;-70
2023/07/04 11:31:21;;;;;;;4.53;1.80;;;;;;;;;;5077939;28;20040;-70
2023/07/04 11:34:04;;;;;;;3.25;1.60;;;;;;;;;;5079305;28;20138;-71
2023/07/04 11:36:33;;;;;;;4.53;1.95;;;;;;;;;;5075947;28;20056;-70
2023/07/04 11:39:05;;;;;;;2.90;1.73;;;;;;;;;;5071492;28;20049;-71
2023/07/04 11:41:34;;;;;;;4.47;2.03;;;;;;;;;;5079752;28;20466;-70
2023/07/04 11:44:12;;;;;;;5.25;1.98;;;;;;;;;;5079597;28;20040;-70
2023/07/04 11:46:42;;;;;;;6.00;1.85;;;;;;;;;;5059643;28;20058;-73
2023/07/04 11:49:17;;;;;;;4.40;1.98;;;;;;;;;;5077254;28;20056;-73
2023/07/04 11:51:46;;;;;;;5.15;1.98;;;;;;;;;;5079864;28;20097;-70
2023/07/04 11:54:16;;;;;;;4.40;2.05;;;;;;;;;;5074837;28;20105;-68
2023/07/04 11:56:44;;;;;;;4.50;1.75;;;;;;;;;;5077790;28;20496;-71
2023/07/04 11:59:43;;;;;;;4.18;2.17;;;;;;;;;;5070452;28;20044;-71
2023/07/04 12:02:28;;;;;;;3.13;1.65;;;;;;;;;;5015635;28;20111;-67
2023/07/04 12:04:57;;;;;;;5.18;1.95;;;;;;;;;;5069427;28;20062;-68
2023/07/04 12:07:30;;;;;;;6.03;1.77;;;;;;;;;;5077565;28;20076;-69
2023/07/04 12:10:05;;;;;;;4.78;1.88;;;;;;;;;;5073596;28;20503;-70
2023/07/04 12:12:37;;;;;;;4.95;1.65;;;;;;;;;;5075327;28;20405;-69
2023/07/04 12:15:08;;;;;;;5.38;1.60;;;;;;;;;;5078082;28;20051;-68
2023/07/04 12:17:39;;;;;;;3.03;1.55;;;;;;;;;;5076381;28;20044;-68
2023/07/04 12:20:11;;;;;;;4.97;1.73;;;;;;;;;;5074780;28;20044;-69
2023/07/04 12:22:45;;;;;;;3.58;1.50;;;;;;;;;;5078050;28;20137;-68
2023/07/04 12:25:20;;;;;;;4.55;1.52;;;;;;;;;;5077593;28;20193;-66
2023/07/04 12:27:48;;;;;;;3.08;1.42;;;;;;;;;;5075260;28;20047;-66
2023/07/04 12:30:17;;;;;;;4.32;1.70;;;;;;;;;;5077611;28;20332;-67
2023/07/04 12:32:46;;;;;;;3.60;1.60;;;;;;;;;;5072593;28;20048;-68
2023/07/04 12:35:16;;;;;;;2.72;1.60;;;;;;;;;;5073357;28;20054;-68
2023/07/04 12:37:47;;;;;;;4.78;1.63;;;;;;;;;;5070854;28;20048;-66
2023/07/04 12:40:18;;;;;;;4.05;1.63;;;;;;;;;;5074375;28;20087;-70
2023/07/04 12:42:49;;;;;;;4.28;1.80;;;;;;;;;;5072381;28;20105;-71
2023/07/04 12:45:20;;;;;;;3.42;1.48;;;;;;;;;;5067464;28;20294;-69
2023/07/04 12:47:50;;;;;;;3.10;1.70;;;;;;;;;;5067538;28;20125;-70
2023/07/04 12:50:22;;;;;;;4.40;1.80;;;;;;;;;;5067733;28;20544;-67
2023/07/04 12:52:52;;;;;;;3.00;1.55;;;;;;;;;;5074526;28;20397;-66
2023/07/04 12:55:24;;;;;;;3.03;1.92;;;;;;;;;;5061894;28;20501;-70
2023/07/04 12:57:54;;;;;;;2.65;1.60;;;;;;;;;;5069775;28;20442;-70
2023/07/04 13:00:27;;;;;;;2.97;1.13;;;;;;;;;;5075137;28;20037;-67
2023/07/04 13:02:57;;;;;;;2.70;1.30;;;;;;;;;;5066916;28;20075;-72
2023/07/04 13:05:29;;;;;;;2.30;1.40;;;;;;;;;;5070305;28;20044;-70
2023/07/04 13:07:57;;;;;;;2.85;1.45;;;;;;;;;;5069688;28;20056;-68
2023/07/04 13:10:31;;;;;;;2.08;1.20;;;;;;;;;;5070993;28;20071;-68
2023/07/04 13:12:59;;;;;;;2.88;1.40;;;;;;;;;;5071136;28;20074;-67
2023/07/04 13:15:29;;;;;;;2.67;1.30;;;;;;;;;;5067589;28;20109;-69
2023/07/04 13:17:59;;;;;;;1.80;1.35;;;;;;;;;;5067006;28;20055;-68
2023/07/04 13:20:28;;;;;;;3.45;1.35;;;;;;;;;;5071915;28;20048;-69
2023/07/04 13:23:17;;;;;;;3.35;1.40;;;;;;;;;;5062867;28;20425;-67
2023/07/04 13:25:50;;;;;;;4.45;1.50;;;;;;;;;;5073392;28;20056;-67
2023/07/04 13:28:23;;;;;;;2.63;1.80;;;;;;;;;;5079327;28;20055;-66
2023/07/04 13:30:54;;;;;;;4.60;1.60;;;;;;;;;;5074648;28;20546;-75
2023/07/04 13:33:42;;;;;;;2.28;1.35;;;;;;;;;;5077886;28;20883;-69
2023/07/04 13:36:12;;;;;;;3.10;1.67;;;;;;;;;;5077071;28;20516;-68
2023/07/04 13:38:41;;;;;;;3.08;1.10;;;;;;;;;;5073947;28;20055;-69
2023/07/04 13:41:15;;;;;;;2.85;1.40;;;;;;;;;;5077247;28;20051;-70
2023/07/04 13:43:44;;;;;;;4.35;1.35;;;;;;;;;;5072344;28;20051;-72
2023/07/04 13:46:17;;;;;;;4.30;1.67;;;;;;;;;;5074264;28;20056;-68
2023/07/04 13:48:46;;;;;;;2.88;1.55;;;;;;;;;;5076786;28;20401;-68
2023/07/04 13:51:14;;;;;;;2.15;1.33;;;;;;;;;;5075409;28;20048;-70
2023/07/04 13:53:42;;;;;;;2.88;1.50;;;;;;;;;;5074053;28;20050;-68
2023/07/04 13:56:11;;;;;;;3.30;1.55;;;;;;;;;;5071814;28;20048;-70
2023/07/04 13:58:41;;;;;;;3.60;1.67;;;;;;;;;;5075304;28;20075;-71
2023/07/04 14:01:09;;;;;;;3.22;1.67;;;;;;;;;;5074868;28;20047;-70
2023/07/04 14:03:40;;;;;;;4.28;1.70;;;;;;;;;;5074951;28;20595;-67
2023/07/04 14:06:12;;;;;;;6.80;1.75;;;;;;;;;;5073200;28;20113;-68
2023/07/04 14:08:42;;;;;;;4.95;1.98;;;;;;;;;;5071872;28;20310;-68
2023/07/04 14:11:12;;;;;;;3.63;1.40;;;;;;;;;;5076894;28;20044;-69
2023/07/04 14:13:42;;;;;;;2.97;1.17;;;;;;;;;;5076863;28;20182;-70
2023/07/04 14:16:12;;;;;;;2.75;1.50;;;;;;;;;;5074513;28;20469;-68
2023/07/04 14:18:43;;;;;;;3.17;1.50;;;;;;;;;;5079908;28;20055;-67
2023/07/04 14:21:15;;;;;;;3.45;1.60;;;;;;;;;;5074812;28;20112;-70
2023/07/04 14:23:44;;;;;;;2.65;1.30;;;;;;;;;;5082771;28;20040;-67
2023/07/04 14:26:13;;;;;;;2.35;1.45;;;;;;;;;;5079119;28;20443;-71
2023/07/04 14:28:43;;;;;;;2.88;1.30;;;;;;;;;;5079008;28;20052;-67
2023/07/04 14:31:13;;;;;;;3.10;1.80;;;;;;;;;;5078527;28;20363;-68
2023/07/04 14:33:42;;;;;;;3.60;1.73;;;;;;;;;;5080712;28;20044;-65
2023/07/04 14:36:10;;;;;;;1.88;1.23;;;;;;;;;;5081039;28;20538;-67
2023/07/04 14:38:39;;;;;;;2.58;1.30;;;;;;;;;;5081012;28;20047;-72
2023/07/04 14:41:07;;;;;;;2.53;1.90;;;;;;;;;;5078725;28;20048;-66
2023/07/04 14:43:39;;;;;;;4.97;1.40;;;;;;;;;;5080454;28;20109;-75
2023/07/04 14:46:09;;;;;;;3.70;1.98;;;;;;;;;;5078462;28;20052;-68
2023/07/04 14:48:37;;;;;;;2.40;1.25;;;;;;;;;;5079251;28;20064;-67
2023/07/04 14:51:07;;;;;;;2.65;1.42;;;;;;;;;;5081462;28;20591;-67
2023/07/04 14:53:36;;;;;;;3.53;1.50;;;;;;;;;;5083189;28;20306;-70
2023/07/04 14:56:05;;;;;;;2.47;1.33;;;;;;;;;;5080816;28;20187;-70
2023/07/04 14:58:34;;;;;;;4.18;1.58;;;;;;;;;;5080553;28;20078;-70
2023/07/04 15:01:03;;;;;;;2.92;1.48;;;;;;;;;;5077385;28;20570;-68